Latest Coastal Weather Observations for Cape Borda

IDT60701

Issued at 1:21 am EST Sunday 5 July 2015 (issued every 10 minutes, with the page automatically refreshed every 10 minutes)

About coastal observations | Map of coastal stations | Coastal observations for TAS | Marine services | Other Formats
Station Details ID: 022823 Name: CAPE BORDA Lat: -35.75 Lon: 136.60 Height: 158.0 m
Data from the previous 72 hours. | See also: Recent months at Cape Borda
Date/Time
EST
Temp

°C
Wind Pressure Rain
since 9am
mm
Weather Cloud Vis
km
Sea
Height
m
Swell
Dir
 
Speed
knots
Gust
knots
hPa Trend Height
m
Period
s
Dir
05/01:00am 13.0 NNW 9 11 1019.1 - 0.0 - - - - - - -
05/12:30am 13.2 NNW 9 13 1019.5 - 0.0 - - - - - - -
05/12:00am 13.3 NNW 9 14 1019.5 - 0.0 - - - - - - -
 
Date/Time
EST
Temp

°C
Wind Pressure Rain
since 9am
mm
Weather Cloud Vis
km
Sea
Height
m
Swell
Dir
 
Speed
knots
Gust
knots
hPa Trend Height
m
Period
s
Dir
04/11:30pm 13.4 NNW 9 14 1019.6 - 0.0 - - - - - - -
04/11:00pm 13.6 NNW 9 13 1019.8 - 0.0 - - - - - - -
04/10:30pm 13.6 NNW 9 14 1020.0 - 0.0 - - - - - - -
04/10:00pm 13.6 NNW 10 14 1020.1 - 0.0 - - - - - - -
04/09:30pm 13.6 NNW 9 13 1020.4 - 0.0 - - - - - - -
04/09:00pm 13.4 NNW 9 13 1020.2 - 0.0 - - - - - - -
04/08:30pm 13.3 NNW 9 14 1020.2 - 0.0 - - - - - - -
04/08:00pm 13.1 NNW 7 11 1020.3 - 0.0 - - - - - - -
04/07:30pm 12.9 NNW 8 11 1020.4 - 0.0 - - - - - - -
04/07:00pm 13.0 NNW 8 11 1020.4 - 0.0 - - - - - - -
04/06:30pm 13.0 N 7 10 1020.3 - 0.0 - - - - - - -
04/06:00pm 13.0 NNW 6 8 1020.4 - 0.0 - - - - - - -
04/05:30pm 14.0 NNW 6 8 1020.4 - 0.0 - - - - - - -
04/05:00pm 14.6 N 7 10 1020.4 - 0.0 - - - - - - -
04/04:30pm 15.1 NNW 8 11 1020.6 - 0.0 - - - - - - -
04/04:00pm 15.5 NNW 8 11 1020.5 - 0.0 - - - - - - -
04/03:30pm 15.2 N 10 13 1020.5 F 0.0 Fine Mostly clear 20 <0.5 4.0 8 SW
04/03:00pm 15.7 N 9 11 1020.5 - 0.0 - - - - - - -
04/02:30pm 15.6 NNW 9 13 1020.9 - 0.0 - - - - - - -
04/02:00pm 15.7 N 10 13 1021.2 - 0.0 - - - - - - -
04/01:30pm 15.6 N 9 13 1021.5 - 0.0 - - - - - - -
04/01:00pm 15.7 NNW 9 12 1022.0 - 0.0 - - - - - - -
04/12:30pm 15.5 NNW 9 13 1022.5 - 0.0 - - - - - - -
04/12:00pm 15.5 N 9 13 1022.7 - 0.0 - - - - - - -
04/11:30am 15.2 NNW 8 11 1023.1 - 0.0 - - - - - - -
04/11:00am 14.4 NNW 8 12 1023.4 - 0.0 - - - - - - -
04/10:30am 13.6 N 9 12 1023.5 - 0.0 - - - - - - -
04/10:00am 13.2 N 9 13 1023.3 - 0.0 - - - - - - -
04/09:30am 12.7 N 8 12 1023.3 F 17.2 Haze Partly cloudy 15 <0.5 4.1 10 SW
04/09:00am 12.6 N 7 11 1023.0 - 17.2 - - - - - - -
04/08:30am 12.5 N 8 11 1023.0 - 17.2 - - - - - - -
04/08:00am 12.5 N 7 11 1022.8 - 17.0 - - - - - - -
04/07:30am 12.5 N 7 9 1022.6 - 17.0 - - - - - - -
04/07:00am 12.6 N 7 9 1022.4 - 17.0 - - - - - - -
04/06:30am 12.5 N 4 6 1022.6 - 17.0 - - - - - - -
04/06:00am 12.5 N 6 8 1022.3 - 17.0 - - - - - - -
04/05:30am 12.5 NNW 7 10 1022.4 - 17.0 - - - - - - -
04/05:00am 11.9 N 4 5 1022.5 - 17.0 - - - - - - -
04/04:30am 11.5 NNW 6 8 1022.5 - 17.0 - - - - - - -
04/04:00am 11.5 NW 4 7 1022.7 - 17.0 - - - - - - -
04/03:30am 11.6 NW 4 7 1023.0 - 16.8 - - - - - - -
04/03:00am 11.2 N 4 6 1023.0 - 16.8 - - - - - - -
04/02:30am 11.5 NW 4 5 1023.2 - 16.2 - - - - - - -
04/02:00am 12.0 WNW 4 6 1023.3 - 15.8 - - - - - - -
04/01:30am 12.0 NW 4 6 1023.4 - 14.8 - - - - - - -
04/01:00am 12.1 NW 5 8 1023.5 - 10.6 - - - - - - -
04/12:30am 12.1 W 5 7 1024.0 - 7.8 - - - - - - -
04/12:00am 12.4 NNW 4 9 1023.9 - 4.6 - - - - - - -
 
Date/Time
EST
Temp

°C
Wind Pressure Rain
since 9am
mm
Weather Cloud Vis
km
Sea
Height
m
Swell
Dir
 
Speed
knots
Gust
knots
hPa Trend Height
m
Period
s
Dir
03/11:30pm 12.9 NNW 6 9 1024.1 - 0.0 - - - - - - -
03/11:00pm 12.8 NW 7 9 1024.2 - 0.0 - - - - - - -
03/10:30pm 12.8 N 8 11 1024.2 - 0.0 - - - - - - -
03/10:00pm 12.8 N 8 12 1024.4 - 0.0 - - - - - - -
03/09:30pm 12.9 N 7 11 1024.7 - 0.0 - - - - - - -
03/09:00pm 12.8 N 7 11 1024.7 - 0.0 - - - - - - -
03/08:30pm 12.7 N 7 10 1024.7 - 0.0 - - - - - - -
03/08:00pm 12.7 N 7 10 1024.7 - 0.0 - - - - - - -
03/07:30pm 12.5 NNW 7 9 1024.6 - 0.0 - - - - - - -
03/07:00pm 12.4 NNW 6 8 1024.7 - 0.0 - - - - - - -
03/06:30pm 11.9 N 5 6 1024.9 - 0.0 - - - - - - -
03/06:00pm 11.9 NNW 5 6 1024.7 - 0.0 - - - - - - -
03/05:30pm 12.3 NW 7 10 1024.8 - 0.0 - - - - - - -
03/05:00pm 12.4 NW 6 9 1024.8 - 0.0 - - - - - - -
03/04:30pm 12.4 NW 7 10 1024.9 - 0.0 - - - - - - -
03/04:00pm 12.6 NW 8 10 1025.0 - 0.0 - - - - - - -
03/03:30pm 12.5 N 9 13 1025.3 F 0.0 Fine Mostly cloudy 18 <0.5 4.4 9 SW
03/03:00pm 12.4 N 9 13 1025.1 - 0.0 - - - - - - -
03/02:30pm 12.0 N 9 13 1025.4 - 0.0 - - - - - - -
03/02:00pm 12.0 N 9 13 1025.7 - 0.0 - - - - - - -
03/01:30pm 11.8 N 8 11 1026.2 - 0.0 - - - - - - -
03/01:00pm 11.6 N 8 11 1026.7 - 0.0 - - - - - - -
03/12:30pm 11.6 N 10 15 1027.6 - 0.0 - - - - - - -
03/12:00pm 11.9 N 10 14 1027.6 - 0.0 - - - - - - -
03/11:30am 12.0 N 10 13 1027.7 - 0.0 - - - - - - -
03/11:00am 12.0 N 9 13 1028.0 - 0.0 - - - - - - -
03/10:30am 11.9 N 9 12 1027.9 - 0.0 - - - - - - -
03/10:00am 11.9 N 9 12 1027.8 - 0.0 - - - - - - -
03/09:30am 12.0 N 8 11 1028.0 F 0.0 Haze Cloudy 15 <0.1 5.8 9 SW
03/09:00am 11.8 N 8 11 1027.5 - 0.0 - - - - - - -
03/08:30am 11.5 N 7 11 1027.1 - 0.0 - - - - - - -
03/08:00am 11.5 N 8 11 1027.0 - 0.0 - - - - - - -
03/07:30am 11.4 NNE 8 11 1027.3 - 0.0 - - - - - - -
03/07:00am 10.4 ENE 7 12 1027.3 - 0.0 - - - - - - -
03/06:30am 9.6 E 6 10 1027.7 - 0.0 - - - - - - -
03/06:00am 9.5 E 8 9 1027.2 - 0.0 - - - - - - -
03/05:30am 8.8 E 7 8 1027.3 - 0.0 - - - - - - -
03/05:00am 8.9 E 7 9 1027.6 - 0.0 - - - - - - -
03/04:30am 9.3 E 7 9 1027.8 - 0.0 - - - - - - -
03/04:00am 8.9 E 7 8 1028.4 - 0.0 - - - - - - -
03/03:30am 8.8 E 5 6 1029.2 - 0.0 - - - - - - -
03/03:00am 8.9 E 7 7 1028.9 - 0.0 - - - - - - -
03/02:30am 8.1 ESE 6 7 1028.9 - 0.0 - - - - - - -
03/02:00am 8.0 E 6 8 1028.9 - 0.0 - - - - - - -
03/01:30am 8.0 E 6 7 1029.0 - 0.0 - - - - - - -
03/01:00am 7.9 E 7 7 1029.2 - 0.0 - - - - - - -
03/12:30am 7.8 E 7 9 1029.9 - 0.0 - - - - - - -
03/12:00am 7.2 E 9 9 1029.9 - 0.0 - - - - - - -
 
Date/Time
EST
Temp

°C
Wind Pressure Rain
since 9am
mm
Weather Cloud Vis
km
Sea
Height
m
Swell
Dir
 
Speed
knots
Gust
knots
hPa Trend Height
m
Period
s
Dir
02/11:30pm 6.2 ESE 8 9 1030.1 - 0.0 - - - - - - -
02/11:00pm 5.8 ESE 8 8 1029.9 - 0.0 - - - - - - -
02/10:30pm 6.0 ESE 9 9 1030.0 - 0.0 - - - - - - -
02/10:00pm 6.4 ESE 8 9 1030.1 - 0.0 - - - - - - -
02/09:30pm 6.6 ESE 8 9 1030.4 - 0.0 - - - - - - -
02/09:00pm 6.4 SE 8 9 1030.3 - 0.0 - - - - - - -
02/08:30pm 6.8 SE 9 9 1030.2 - 0.0 - - - - - - -
02/08:00pm 7.3 SE 9 10 1030.0 - 0.0 - - - - - - -
02/07:30pm 7.3 SE 8 9 1029.7 - 0.0 - - - - - - -
02/07:00pm 7.5 SE 8 9 1029.4 - 0.0 - - - - - - -
02/06:30pm 7.9 SE 8 9 1029.3 - 0.0 - - - - - - -
02/06:00pm 8.8 SE 8 8 1029.0 - 0.0 - - - - - - -
02/05:30pm 10.5 SE 6 7 1029.0 - 0.0 - - - - - - -
02/05:00pm 12.0 SSE 7 11 1029.2 - 0.0 - - - - - - -
02/04:30pm 12.9 SSE 6 8 1029.0 - 0.0 - - - - - - -
02/04:00pm 13.5 SSW 4 6 1029.1 - 0.0 - - - - - - -
02/03:30pm 13.2 SW 5 8 1029.2 R 0.0 Fine Mostly clear 15 1 7.2 9 S
02/03:00pm 13.3 S 8 12 1028.9 - 0.0 - - - - - - -
02/02:30pm 13.1 S 9 13 1029.0 - 0.0 - - - - - - -
02/02:00pm 13.4 S 9 14 1029.1 - 0.0 - - - - - - -
02/01:30pm 13.4 SSE 9 12 1029.5 - 0.0 - - - - - - -
02/01:00pm 13.3 SW 9 13 1030.0 - 0.0 - - - - - - -
02/12:30pm 13.5 SW 10 13 1030.4 - 0.0 - - - - - - -
02/12:00pm 12.7 S 11 17 1030.2 - 0.0 - - - - - - -
02/11:30am 13.2 S 9 13 1030.0 - 0.0 - - - - - - -
02/11:00am 12.7 S 9 12 1030.2 - 0.0 - - - - - - -
02/10:30am 12.6 S 11 16 1029.8 - 0.0 - - - - - - -
02/10:00am 12.0 S 11 16 1029.2 - 0.0 - - - - - - -
02/09:30am 11.5 S 10 15 1029.0 R 0.0 Fine Mostly clear 15 1 4.8 7 SW
02/09:00am 11.3 S 11 15 1028.6 - 0.0 - - - - - - -
02/08:30am 11.4 S 12 16 1028.3 - 0.0 - - - - - - -
02/08:00am 11.2 SSW 9 12 1028.2 - 0.0 - - - - - - -
02/07:30am 11.4 S 12 16 1027.5 - 0.0 - - - - - - -
02/07:00am 11.7 SSW 12 16 1027.1 - 0.0 - - - - - - -
02/06:30am 12.0 S 13 17 1026.9 - 0.0 - - - - - - -
02/06:00am 12.2 SSW 12 17 1026.4 - 0.0 - - - - - - -
02/05:30am 12.0 S 12 18 1026.4 - 0.0 - - - - - - -
02/05:00am 12.4 S 13 17 1026.3 - 0.0 - - - - - - -
02/04:30am 13.9 WSW 14 19 1026.3 - 0.0 - - - - - - -
02/04:00am 13.9 WSW 14 20 1026.3 - 0.0 - - - - - - -
02/03:30am 13.8 W 14 22 1026.5 - 0.0 - - - - - - -
02/03:00am 13.8 W 15 19 1026.2 - 0.0 - - - - - - -
02/02:30am 13.6 WSW 15 22 1026.1 - 0.0 - - - - - - -
02/02:00am 13.5 W 15 20 1026.1 - 0.0 - - - - - - -

Other Formats:

Comma delimited format used in spreadsheet applications
http://www.bom.gov.au/fwo/IDT60701/IDT60701.95805.axf

JavaScript Object Notation format (JSON) in row-major order
http://www.bom.gov.au/fwo/IDT60701/IDT60701.95805.json